createdAt,value
2023-07-25T00:01:15.972Z,15.40
2023-07-25T00:03:43.851Z,15.40
2023-07-25T00:06:12.001Z,15.40
2023-07-25T00:08:40.356Z,15.40
2023-07-25T00:11:15.293Z,15.40
2023-07-25T00:13:43.163Z,15.30
2023-07-25T00:16:11.078Z,15.40
2023-07-25T00:18:38.964Z,15.30
2023-07-25T00:21:06.994Z,15.30
2023-07-25T00:23:34.861Z,15.30
2023-07-25T00:26:02.868Z,15.30
2023-07-25T00:28:32.073Z,15.20
2023-07-25T00:31:06.866Z,15.20
2023-07-25T00:33:34.708Z,15.20
2023-07-25T00:36:02.588Z,15.10
2023-07-25T00:38:30.429Z,15.10
2023-07-25T00:40:58.284Z,15.10
2023-07-25T00:43:27.187Z,15.10
2023-07-25T00:45:56.613Z,15.00
2023-07-25T00:48:24.522Z,15.00
2023-07-25T00:50:53.109Z,14.90
2023-07-25T00:53:21.223Z,14.90
2023-07-25T00:55:50.247Z,14.90
2023-07-25T00:58:20.006Z,14.90
2023-07-25T01:00:47.815Z,14.90
2023-07-25T01:03:17.461Z,14.90
2023-07-25T01:05:49.075Z,14.90
2023-07-25T01:08:16.917Z,14.80
2023-07-25T01:10:44.794Z,14.80
2023-07-25T01:13:12.663Z,14.80
2023-07-25T01:15:41.549Z,14.80
2023-07-25T01:18:10.404Z,14.80
2023-07-25T01:20:39.986Z,14.80
2023-07-25T01:23:09.025Z,14.80
2023-07-25T01:25:38.487Z,14.80
2023-07-25T01:28:06.833Z,14.80
2023-07-25T01:30:34.682Z,14.80
2023-07-25T01:33:02.859Z,14.80
2023-07-25T01:35:30.829Z,14.70
2023-07-25T01:37:58.610Z,14.70
2023-07-25T01:40:26.615Z,14.60
2023-07-25T01:42:55.828Z,14.60
2023-07-25T01:45:23.960Z,14.60
2023-07-25T01:47:51.959Z,14.60
2023-07-25T01:50:19.874Z,14.60
2023-07-25T01:52:47.722Z,14.60
2023-07-25T01:55:15.840Z,14.60
2023-07-25T01:57:43.636Z,14.60
2023-07-25T02:00:13.975Z,14.50
2023-07-25T02:02:42.510Z,14.50
2023-07-25T02:05:10.498Z,14.50
2023-07-25T02:07:39.024Z,14.60
2023-07-25T02:10:07.903Z,14.50
2023-07-25T02:12:35.712Z,14.50
2023-07-25T02:15:03.601Z,14.40
2023-07-25T02:17:32.837Z,14.40
2023-07-25T02:20:00.712Z,14.40
2023-07-25T02:22:28.673Z,14.40
2023-07-25T02:24:56.739Z,14.40
2023-07-25T02:27:25.901Z,14.40
2023-07-25T02:29:53.694Z,14.40
2023-07-25T02:32:21.597Z,14.40
2023-07-25T02:34:50.822Z,14.30
2023-07-25T02:37:18.739Z,14.30
2023-07-25T02:39:46.699Z,14.30
2023-07-25T02:42:14.518Z,14.20
2023-07-25T02:44:42.410Z,14.20
2023-07-25T02:47:10.325Z,14.20
2023-07-25T02:49:39.830Z,14.20
2023-07-25T02:52:09.685Z,14.20
2023-07-25T02:54:37.709Z,14.20
2023-07-25T02:57:06.155Z,14.10
2023-07-25T02:59:34.094Z,14.10
2023-07-25T03:02:02.009Z,14.00
2023-07-25T03:04:31.140Z,14.00
2023-07-25T03:06:58.959Z,14.00
2023-07-25T03:09:28.235Z,14.10
2023-07-25T03:11:56.036Z,14.10
2023-07-25T03:14:23.952Z,14.10
2023-07-25T03:16:51.985Z,14.00
2023-07-25T03:19:19.833Z,14.10
2023-07-25T03:21:47.744Z,14.10
2023-07-25T03:24:15.646Z,14.10
2023-07-25T03:26:44.879Z,14.00
2023-07-25T03:29:12.812Z,14.00
2023-07-25T03:31:40.677Z,14.00
2023-07-25T03:34:08.826Z,14.00
2023-07-25T03:36:36.643Z,13.90
2023-07-25T03:39:05.171Z,13.90
2023-07-25T03:41:33.342Z,13.90
2023-07-25T03:44:03.182Z,13.90
2023-07-25T03:46:31.071Z,13.80
2023-07-25T03:48:59.351Z,13.90
2023-07-25T03:51:27.338Z,13.90
2023-07-25T03:53:55.321Z,13.90
2023-07-25T03:56:23.257Z,13.80
2023-07-25T03:58:51.112Z,13.80
2023-07-25T04:01:20.410Z,13.80
2023-07-25T04:03:48.460Z,13.80
2023-07-25T04:06:16.557Z,13.80
2023-07-25T04:08:44.455Z,13.80
2023-07-25T04:11:14.141Z,13.80
2023-07-25T04:13:42.382Z,13.80
2023-07-25T04:16:10.383Z,13.80
2023-07-25T04:18:39.549Z,13.80
2023-07-25T04:21:07.563Z,13.80
2023-07-25T04:23:35.475Z,13.80
2023-07-25T04:26:03.315Z,13.90
2023-07-25T04:28:32.791Z,13.90
2023-07-25T04:31:00.888Z,13.90
2023-07-25T04:33:28.727Z,13.80
2023-07-25T04:35:57.997Z,13.90
2023-07-25T04:38:26.119Z,13.80
2023-07-25T04:40:53.988Z,13.80
2023-07-25T04:43:22.438Z,13.80
2023-07-25T04:45:54.664Z,13.80
2023-07-25T04:48:23.080Z,13.80
2023-07-25T04:50:50.976Z,13.80
2023-07-25T04:53:20.258Z,13.80
2023-07-25T04:55:48.051Z,13.80
2023-07-25T04:58:16.034Z,13.80
2023-07-25T05:00:43.974Z,13.80
2023-07-25T05:03:11.962Z,13.80
2023-07-25T05:05:39.888Z,13.80
2023-07-25T05:08:07.795Z,13.90
2023-07-25T05:10:37.207Z,13.90
2023-07-25T05:13:05.139Z,13.90
2023-07-25T05:15:33.008Z,14.00
2023-07-25T05:18:00.852Z,14.00
2023-07-25T05:20:28.874Z,14.00
2023-07-25T05:22:56.863Z,14.00
2023-07-25T05:25:24.689Z,14.10
2023-07-25T05:27:53.877Z,14.10
2023-07-25T05:30:21.697Z,14.20
2023-07-25T05:32:51.128Z,14.20
2023-07-25T05:35:19.354Z,14.30
2023-07-25T05:37:47.222Z,14.30
2023-07-25T05:40:15.158Z,14.30
2023-07-25T05:42:43.050Z,14.30
2023-07-25T05:45:12.832Z,14.40
2023-07-25T05:47:40.766Z,14.40
2023-07-25T05:50:09.820Z,14.50
2023-07-25T05:52:37.954Z,14.60
2023-07-25T05:55:06.620Z,14.60
2023-07-25T05:57:34.783Z,14.60
2023-07-25T06:00:03.036Z,14.70
2023-07-25T06:02:32.407Z,14.70
2023-07-25T06:05:00.357Z,14.90
2023-07-25T06:07:28.281Z,14.90
2023-07-25T06:09:56.691Z,15.00
2023-07-25T06:12:24.568Z,15.00
2023-07-25T06:14:52.654Z,15.10
2023-07-25T06:17:20.590Z,15.20
2023-07-25T06:19:49.807Z,15.20
2023-07-25T06:22:17.940Z,15.30
2023-07-25T06:24:45.918Z,15.30
2023-07-25T06:27:13.999Z,15.40
2023-07-25T06:29:41.918Z,15.40
2023-07-25T06:32:10.205Z,15.50
2023-07-25T06:34:38.036Z,15.50
2023-07-25T06:37:08.218Z,15.60
2023-07-25T06:39:36.152Z,15.60
2023-07-25T06:42:05.142Z,15.50
2023-07-25T06:44:33.227Z,15.50
2023-07-25T06:47:01.033Z,15.50
2023-07-25T06:49:28.938Z,15.50
2023-07-25T06:51:57.345Z,15.60
2023-07-25T06:54:27.478Z,15.70
2023-07-25T06:56:55.308Z,15.60
2023-07-25T06:59:23.194Z,15.70
2023-07-25T07:01:51.002Z,15.70
2023-07-25T07:04:18.824Z,15.70
2023-07-25T07:06:46.738Z,15.70
2023-07-25T07:09:14.719Z,15.80
2023-07-25T07:11:43.975Z,15.70
2023-07-25T07:14:11.803Z,15.80
2023-07-25T07:16:39.828Z,15.80
2023-07-25T07:19:08.050Z,15.90
2023-07-25T07:21:36.091Z,15.90
2023-07-25T07:24:03.969Z,15.90
2023-07-25T07:26:34.187Z,15.90
2023-07-25T07:29:03.669Z,15.90
2023-07-25T07:31:31.591Z,15.90
2023-07-25T07:34:11.317Z,15.90
2023-07-25T07:36:39.289Z,16.00
2023-07-25T07:39:10.902Z,16.10
2023-07-25T07:41:38.766Z,16.10
2023-07-25T07:44:14.011Z,16.00
2023-07-25T07:46:42.039Z,16.00
2023-07-25T07:49:12.321Z,16.00
2023-07-25T07:51:40.163Z,16.00
2023-07-25T07:54:08.017Z,16.00
2023-07-25T07:56:35.880Z,16.00
2023-07-25T07:59:03.705Z,16.10
2023-07-25T08:01:33.659Z,16.10
2023-07-25T08:04:03.830Z,16.10
2023-07-25T08:06:32.288Z,16.20
2023-07-25T08:09:00.468Z,16.30
2023-07-25T08:11:31.364Z,16.20
2023-07-25T08:14:01.414Z,16.30
2023-07-25T08:16:32.928Z,16.30
2023-07-25T08:19:00.765Z,16.40
2023-07-25T08:21:28.657Z,16.40
2023-07-25T08:23:56.696Z,16.50
2023-07-25T08:26:26.953Z,16.70
2023-07-25T08:28:57.185Z,16.80
2023-07-25T08:31:25.050Z,16.80
2023-07-25T08:33:54.271Z,16.80
2023-07-25T08:36:22.175Z,16.80
2023-07-25T08:38:51.949Z,16.80
2023-07-25T08:41:24.124Z,16.80
2023-07-25T08:43:56.926Z,16.80
2023-07-25T08:46:29.039Z,16.90
2023-07-25T08:49:03.034Z,17.00
2023-07-25T08:51:36.178Z,17.10
2023-07-25T08:54:21.822Z,17.10
2023-07-25T08:56:50.430Z,17.10
2023-07-25T08:59:21.591Z,17.20
2023-07-25T09:01:49.488Z,17.20
2023-07-25T09:04:21.537Z,17.20
2023-07-25T09:06:52.025Z,17.30
2023-07-25T09:09:20.418Z,17.40
2023-07-25T09:11:48.278Z,17.40
2023-07-25T09:14:16.281Z,17.50
2023-07-25T09:16:44.633Z,17.60
2023-07-25T09:19:13.530Z,17.70
2023-07-25T09:21:50.708Z,17.80
2023-07-25T09:24:18.941Z,17.90
2023-07-25T09:26:52.699Z,18.00
2023-07-25T09:29:21.924Z,18.00
2023-07-25T09:31:50.040Z,18.10
2023-07-25T09:34:19.285Z,18.20
2023-07-25T09:36:49.533Z,18.30
2023-07-25T09:39:17.780Z,18.30
2023-07-25T09:41:46.778Z,18.40
2023-07-25T09:44:15.060Z,18.50
2023-07-25T09:46:53.098Z,18.50
2023-07-25T09:49:24.056Z,18.60
2023-07-25T09:52:05.325Z,18.80
2023-07-25T09:54:33.195Z,19.00
2023-07-25T09:57:04.721Z,19.20
2023-07-25T09:59:32.858Z,19.30
2023-07-25T10:02:00.948Z,19.60
2023-07-25T10:04:29.138Z,19.80
2023-07-25T10:06:58.514Z,19.90
2023-07-25T10:09:30.044Z,19.80
2023-07-25T10:11:58.587Z,19.60
2023-07-25T10:14:26.562Z,19.50
2023-07-25T10:16:54.679Z,19.50
2023-07-25T10:19:22.674Z,19.50
2023-07-25T10:21:51.824Z,19.50
2023-07-25T10:24:21.031Z,19.50
2023-07-25T10:26:58.652Z,19.60
2023-07-25T10:29:40.666Z,19.70
2023-07-25T10:32:11.735Z,19.80
2023-07-25T10:34:48.391Z,19.80
2023-07-25T10:37:24.397Z,19.90
2023-07-25T10:40:10.620Z,19.90
2023-07-25T10:43:04.981Z,19.90
2023-07-25T10:45:54.140Z,19.90
2023-07-25T10:48:32.657Z,19.90
2023-07-25T10:51:02.202Z,19.80
2023-07-25T10:53:30.193Z,19.70
2023-07-25T10:56:14.219Z,19.80
2023-07-25T10:59:10.508Z,19.70
2023-07-25T11:01:45.842Z,19.60
2023-07-25T11:04:33.363Z,19.70
2023-07-25T11:07:11.592Z,19.70
2023-07-25T11:09:44.223Z,19.70
2023-07-25T11:12:14.193Z,19.70
2023-07-25T11:14:44.677Z,19.70
2023-07-25T11:17:14.849Z,19.70
2023-07-25T11:19:42.942Z,19.80
2023-07-25T11:22:12.588Z,19.90
2023-07-25T11:24:44.435Z,19.90
2023-07-25T11:29:41.098Z,19.80
2023-07-25T11:32:11.298Z,19.80
2023-07-25T11:34:43.421Z,19.70
2023-07-25T11:37:12.753Z,19.60
2023-07-25T11:39:42.660Z,19.70
2023-07-25T11:42:10.517Z,19.70
2023-07-25T11:44:39.018Z,19.90
2023-07-25T11:47:08.581Z,20.00
2023-07-25T11:49:49.679Z,20.10
2023-07-25T11:52:24.137Z,20.20
2023-07-25T11:54:52.564Z,20.40
2023-07-25T11:57:21.760Z,20.50
2023-07-25T11:59:55.425Z,20.50
2023-07-25T12:02:25.979Z,20.50
2023-07-25T12:04:55.352Z,20.40
2023-07-25T12:07:23.197Z,20.20
2023-07-25T12:09:58.528Z,20.40
2023-07-25T12:12:26.564Z,20.60
2023-07-25T12:15:04.398Z,20.70
2023-07-25T12:17:45.217Z,20.90
2023-07-25T12:20:21.133Z,21.00
2023-07-25T12:22:49.360Z,21.10
2023-07-25T12:25:19.707Z,21.10
2023-07-25T12:27:48.711Z,21.00
2023-07-25T12:30:17.432Z,20.90
2023-07-25T12:32:45.766Z,20.80
2023-07-25T12:35:13.726Z,20.90
2023-07-25T12:37:43.056Z,21.00
2023-07-25T12:40:11.615Z,21.10
2023-07-25T12:42:39.464Z,21.10
2023-07-25T12:45:11.035Z,21.10
2023-07-25T12:47:39.574Z,21.10
2023-07-25T12:50:09.696Z,21.00
2023-07-25T12:52:37.700Z,20.90
2023-07-25T12:55:07.644Z,20.80
2023-07-25T12:57:38.538Z,20.80
2023-07-25T13:00:08.677Z,21.00
2023-07-25T13:02:37.853Z,21.00
2023-07-25T13:05:07.382Z,21.00
2023-07-25T13:07:37.474Z,20.90
2023-07-25T13:10:08.554Z,20.90
2023-07-25T13:12:36.606Z,21.00
2023-07-25T22:05:49.884Z,15.20
2023-07-25T22:08:19.629Z,15.20
2023-07-25T22:10:49.174Z,15.20
2023-07-25T22:13:19.816Z,15.20
2023-07-25T22:15:47.689Z,15.20
2023-07-25T22:18:25.854Z,15.10
2023-07-25T22:20:53.648Z,15.10
2023-07-25T22:23:21.995Z,15.10
2023-07-25T22:28:19.512Z,15.00
2023-07-25T22:30:47.553Z,15.00
2023-07-25T22:33:15.410Z,14.90
2023-07-25T22:35:43.316Z,14.90
2023-07-25T22:38:13.431Z,14.90
2023-07-25T22:40:41.602Z,14.90
2023-07-25T22:43:12.070Z,14.90
2023-07-25T22:45:40.585Z,14.90
2023-07-25T22:48:09.833Z,14.90
2023-07-25T22:50:37.714Z,14.90
2023-07-25T22:53:05.580Z,14.90
2023-07-25T22:55:40.699Z,14.80
2023-07-25T22:58:10.169Z,14.80
2023-07-25T23:00:38.383Z,14.80
2023-07-25T23:03:06.521Z,14.80
2023-07-25T23:05:34.950Z,14.70
2023-07-25T23:08:02.753Z,14.70
2023-07-25T23:10:30.586Z,14.70
2023-07-25T23:13:02.692Z,14.70
2023-07-25T23:15:31.860Z,14.70
2023-07-25T23:18:07.419Z,14.70
2023-07-25T23:20:35.261Z,14.70
2023-07-25T23:23:12.062Z,14.60
2023-07-25T23:25:39.971Z,14.60
2023-07-25T23:28:09.837Z,14.50
2023-07-25T23:30:39.159Z,14.50
2023-07-25T23:33:07.225Z,14.50
2023-07-25T23:35:35.201Z,14.40
2023-07-25T23:38:03.357Z,14.50
2023-07-25T23:40:35.293Z,14.50
2023-07-25T23:43:05.782Z,14.40
2023-07-25T23:45:35.103Z,14.50
2023-07-25T23:48:05.064Z,14.40
2023-07-25T23:50:32.958Z,14.30
2023-07-25T23:53:00.847Z,14.30
2023-07-25T23:55:29.003Z,14.30
2023-07-25T23:58:00.848Z,14.30
